Time;durP1;ratioP1;P1;durP2;ratioP2;P2;SDS_P1;SDS_P2;PMS_P1;PMS_P2;Temp;Humidity;BMP_temperature;BMP_pressure;BME280_temperature;BME280_humidity;BME280_pressure;Samples;Min_cycle;Max_cycle;Signal;HPM_P1;HPM_P2
2021/06/01 00:02:00;;;;;;;8.43;7.73;;;14.90;99.90;;;;;;5034370;28;21197;-63
2021/06/01 00:04:26;;;;;;;7.93;7.17;;;14.90;99.90;;;;;;5013169;28;20641;-63
2021/06/01 00:06:52;;;;;;;7.63;6.90;;;14.90;99.90;;;;;;5012055;28;20193;-64
2021/06/01 00:09:20;;;;;;;7.90;7.20;;;14.80;99.90;;;;;;5015881;28;20720;-63
2021/06/01 00:11:46;;;;;;;7.37;6.67;;;14.80;99.90;;;;;;5019408;28;20185;-63
2021/06/01 00:14:12;;;;;;;7.90;7.20;;;14.80;99.90;;;;;;5017403;28;20643;-64
2021/06/01 00:16:41;;;;;;;8.10;7.40;;;14.70;99.90;;;;;;5012883;28;21263;-63
2021/06/01 00:19:08;;;;;;;7.67;6.97;;;14.70;99.90;;;;;;5017077;28;20744;-64
2021/06/01 00:21:35;;;;;;;7.50;6.80;;;14.70;99.90;;;;;;5018645;28;20610;-63
2021/06/01 00:24:04;;;;;;;9.10;8.30;;;14.70;99.90;;;;;;5016836;28;20994;-63
2021/06/01 00:26:30;;;;;;;8.03;7.30;;;14.60;99.90;;;;;;5012469;28;20987;-63
2021/06/01 00:28:58;;;;;;;8.00;7.40;;;14.60;99.90;;;;;;5016928;28;20650;-63
2021/06/01 00:31:26;;;;;;;7.97;7.17;;;14.50;99.90;;;;;;5013954;28;20196;-65
2021/06/01 00:33:51;;;;;;;8.70;7.50;;;14.50;99.90;;;;;;5013850;28;20665;-63
2021/06/01 00:36:17;;;;;;;7.57;6.87;;;14.50;99.90;;;;;;5020942;28;20643;-63
2021/06/01 00:38:45;;;;;;;8.53;7.73;;;14.50;99.90;;;;;;5018716;28;20214;-63
2021/06/01 00:41:11;;;;;;;9.93;7.50;;;14.40;99.90;;;;;;5012885;28;20755;-63
2021/06/01 00:43:38;;;;;;;7.87;7.17;;;14.40;99.90;;;;;;5010969;28;20652;-63
2021/06/01 00:46:07;;;;;;;8.60;7.73;;;14.40;99.90;;;;;;5011801;28;22404;-63
2021/06/01 00:48:32;;;;;;;8.07;7.43;;;14.30;99.90;;;;;;5011892;28;21218;-63
2021/06/01 00:50:59;;;;;;;7.90;7.20;;;14.30;99.90;;;;;;5013428;28;20610;-63
2021/06/01 00:53:27;;;;;;;8.40;7.60;;;14.30;99.90;;;;;;5012412;28;20263;-63
2021/06/01 00:55:55;;;;;;;7.67;7.07;;;14.30;99.90;;;;;;5002538;28;20945;-63
2021/06/01 00:58:22;;;;;;;8.30;7.50;;;14.20;99.90;;;;;;5005656;28;20651;-63
2021/06/01 01:03:21;;;;;;;8.43;7.63;;;14.10;99.90;;;;;;5006888;28;20649;-63
2021/06/01 01:05:49;;;;;;;7.83;7.13;;;14.10;99.90;;;;;;5010476;28;20633;-63
2021/06/01 01:11:16;;;;;;;8.40;7.70;;;14.10;99.90;;;;;;5010513;28;20646;-64
2021/06/01 01:14:14;;;;;;;9.40;8.50;;;14.00;99.90;;;;;;5015575;28;20631;-63
2021/06/01 01:16:45;;;;;;;8.53;7.83;;;14.00;99.90;;;;;;4966782;28;20674;-63
2021/06/01 01:19:14;;;;;;;10.27;7.70;;;14.00;99.90;;;;;;5016591;28;20639;-64
2021/06/01 01:21:48;;;;;;;8.93;8.10;;;13.90;99.90;;;;;;5014073;28;20655;-64
2021/06/01 01:24:32;;;;;;;8.37;7.57;;;13.90;99.90;;;;;;5026875;28;21261;-63
2021/06/01 01:27:15;;;;;;;8.90;8.10;;;13.80;99.90;;;;;;5023332;28;20639;-63
2021/06/01 01:29:43;;;;;;;8.93;8.03;;;13.90;99.90;;;;;;5015090;28;20651;-63
2021/06/01 01:32:34;;;;;;;8.83;7.70;;;13.90;99.90;;;;;;5014260;28;20615;-63
2021/06/01 01:35:01;;;;;;;9.00;8.20;;;13.80;99.90;;;;;;5011216;28;20639;-63
2021/06/01 01:37:30;;;;;;;9.57;8.67;;;13.80;99.90;;;;;;5007399;28;20659;-64
2021/06/01 01:40:00;;;;;;;15.23;10.60;;;13.80;99.90;;;;;;5027948;28;20651;-65
2021/06/01 01:42:40;;;;;;;13.50;12.40;;;13.70;99.90;;;;;;5011933;28;20603;-63
2021/06/01 01:45:09;;;;;;;13.40;12.30;;;13.80;99.90;;;;;;5012456;28;20631;-63
2021/06/01 01:50:13;;;;;;;12.73;11.63;;;13.70;99.90;;;;;;5018882;28;20746;-64
2021/06/01 01:52:41;;;;;;;12.93;11.83;;;13.70;99.90;;;;;;5019283;28;20619;-64
2021/06/01 01:55:11;;;;;;;13.80;12.50;;;13.60;99.90;;;;;;5034350;28;20868;-66
2021/06/01 01:57:41;;;;;;;13.43;12.23;;;13.60;99.90;;;;;;5018223;28;21264;-63
2021/06/01 02:00:11;;;;;;;13.37;12.07;;;13.60;99.90;;;;;;5011654;28;20651;-64
2021/06/01 02:02:37;;;;;;;11.93;10.73;;;13.60;99.90;;;;;;5001563;28;20739;-63
2021/06/01 02:05:06;;;;;;;12.57;11.47;;;13.60;99.90;;;;;;5015417;28;20631;-64
2021/06/01 02:07:33;;;;;;;12.07;10.87;;;13.50;99.90;;;;;;5016506;28;20630;-63
2021/06/01 02:09:59;;;;;;;12.23;11.23;;;13.50;99.90;;;;;;5016010;28;20690;-63
2021/06/01 02:12:25;;;;;;;11.70;10.60;;;13.50;99.90;;;;;;5013446;28;20698;-62
2021/06/01 02:14:57;;;;;;;11.67;10.67;;;13.50;99.90;;;;;;5020249;28;20631;-63
2021/06/01 02:17:25;;;;;;;11.33;10.33;;;13.40;99.90;;;;;;5021259;28;21184;-62
2021/06/01 02:19:51;;;;;;;11.70;10.70;;;13.40;99.90;;;;;;5013563;28;22488;-62
2021/06/01 02:25:16;;;;;;;10.60;9.70;;;13.40;99.90;;;;;;5018793;28;20221;-63
2021/06/01 02:27:50;;;;;;;11.43;10.40;;;13.30;99.90;;;;;;4999537;28;20604;-63
2021/06/01 02:30:20;;;;;;;11.23;10.33;;;13.40;99.90;;;;;;5014335;28;20745;-62
2021/06/01 02:32:49;;;;;;;10.73;9.83;;;13.30;99.90;;;;;;5021467;28;20726;-63
2021/06/01 02:35:19;;;;;;;11.37;10.40;;;13.30;99.90;;;;;;5016979;28;20622;-63
2021/06/01 02:37:48;;;;;;;12.03;11.03;;;13.30;99.90;;;;;;5015663;28;20691;-63
2021/06/01 02:40:20;;;;;;;12.43;11.33;;;13.20;99.90;;;;;;5034608;28;21035;-63
2021/06/01 02:42:47;;;;;;;12.40;11.30;;;13.20;99.90;;;;;;5018494;28;20706;-62
2021/06/01 02:45:15;;;;;;;12.07;10.93;;;13.20;99.90;;;;;;5018768;28;20998;-63
2021/06/01 02:47:42;;;;;;;11.73;10.73;;;13.20;99.90;;;;;;5016310;28;20668;-65
2021/06/01 02:50:11;;;;;;;11.27;10.17;;;13.10;99.90;;;;;;5014713;28;21400;-63
2021/06/01 02:52:39;;;;;;;11.70;10.63;;;13.20;99.90;;;;;;5033878;28;20681;-62
2021/06/01 02:55:06;;;;;;;10.97;9.97;;;13.10;99.90;;;;;;5020260;28;20646;-62
2021/06/01 02:57:35;;;;;;;11.80;10.73;;;13.10;99.90;;;;;;5022818;28;21230;-62
2021/06/01 03:00:02;;;;;;;11.70;10.70;;;13.10;99.90;;;;;;5013304;28;20647;-62
2021/06/01 03:02:29;;;;;;;12.00;11.00;;;13.10;99.90;;;;;;5016375;28;20792;-62
2021/06/01 03:04:55;;;;;;;11.97;10.87;;;13.10;99.90;;;;;;5013017;28;20646;-62
2021/06/01 03:07:22;;;;;;;11.47;10.47;;;13.10;99.90;;;;;;5021259;28;20623;-62
2021/06/01 03:09:50;;;;;;;11.60;10.50;;;13.00;99.90;;;;;;5018682;28;20674;-62
2021/06/01 03:12:38;;;;;;;11.50;10.50;;;13.00;99.90;;;;;;5030130;28;20626;-62
2021/06/01 03:15:08;;;;;;;10.60;9.70;;;13.00;99.90;;;;;;5034428;28;20639;-62
2021/06/01 03:17:36;;;;;;;11.00;10.00;;;13.00;99.90;;;;;;5037756;28;20660;-62
2021/06/01 03:20:03;;;;;;;10.80;9.87;;;13.00;99.90;;;;;;5042739;28;20643;-62
2021/06/01 03:22:29;;;;;;;10.37;9.57;;;12.90;99.90;;;;;;5037082;28;20612;-63
2021/06/01 03:24:57;;;;;;;10.93;9.93;;;12.90;99.90;;;;;;5021614;28;20645;-63
2021/06/01 03:27:22;;;;;;;11.17;10.17;;;12.90;99.90;;;;;;5020966;28;20185;-63
2021/06/01 03:29:48;;;;;;;11.40;10.40;;;12.90;99.90;;;;;;5016279;28;20678;-63
2021/06/01 03:32:13;;;;;;;10.80;9.90;;;12.90;99.90;;;;;;5022459;28;20264;-63
2021/06/01 03:34:39;;;;;;;11.27;10.27;;;12.90;99.90;;;;;;5014802;28;20224;-63
2021/06/01 03:37:04;;;;;;;11.63;10.63;;;12.90;99.90;;;;;;5021612;28;20231;-63
2021/06/01 03:39:31;;;;;;;11.37;10.37;;;12.90;99.90;;;;;;5021731;28;20571;-63
2021/06/01 03:41:58;;;;;;;10.97;9.87;;;12.90;99.90;;;;;;5025093;28;20205;-63
2021/06/01 03:44:25;;;;;;;10.73;9.63;;;12.90;99.90;;;;;;5026575;28;21246;-64
2021/06/01 03:46:51;;;;;;;11.37;10.37;;;12.90;99.90;;;;;;5023290;28;20647;-64
2021/06/01 03:49:21;;;;;;;11.30;10.20;;;12.90;99.90;;;;;;5018152;28;20655;-61
2021/06/01 03:51:47;;;;;;;11.03;10.07;;;12.90;99.90;;;;;;5020157;28;20557;-62
2021/06/01 03:54:15;;;;;;;10.53;9.63;;;12.90;99.90;;;;;;5017439;28;20647;-62
2021/06/01 03:56:40;;;;;;;10.53;9.63;;;12.90;99.90;;;;;;5019683;28;20216;-62
2021/06/01 03:59:06;;;;;;;11.17;10.17;;;12.90;99.90;;;;;;5018268;28;21007;-63
2021/06/01 04:01:31;;;;;;;10.10;9.20;;;12.90;99.90;;;;;;5024516;28;20227;-63
2021/06/01 04:03:57;;;;;;;11.70;10.67;;;13.00;99.90;;;;;;5031975;28;20217;-63
2021/06/01 04:06:23;;;;;;;11.40;10.40;;;13.00;99.90;;;;;;5017528;28;20196;-63
2021/06/01 04:08:48;;;;;;;11.30;10.40;;;13.00;99.90;;;;;;5020884;28;20295;-63
2021/06/01 04:11:14;;;;;;;11.80;10.80;;;13.00;99.90;;;;;;5024587;28;20192;-63
2021/06/01 04:13:40;;;;;;;11.17;10.10;;;13.00;99.90;;;;;;5026802;28;20680;-63
2021/06/01 04:16:06;;;;;;;11.53;10.53;;;13.00;99.90;;;;;;5015681;28;20193;-62
2021/06/01 04:18:32;;;;;;;11.37;10.37;;;13.00;99.90;;;;;;5022397;28;20535;-62
2021/06/01 04:20:59;;;;;;;11.03;10.13;;;13.10;99.90;;;;;;5027133;28;20646;-63
2021/06/01 04:23:25;;;;;;;11.07;10.07;;;13.10;99.90;;;;;;5035903;28;20322;-63
2021/06/01 04:25:50;;;;;;;11.50;10.47;;;13.10;99.90;;;;;;5039782;28;20706;-63
2021/06/01 04:28:16;;;;;;;11.57;10.47;;;13.10;99.90;;;;;;5026311;28;20719;-63
2021/06/01 04:30:44;;;;;;;11.50;10.30;;;13.10;99.90;;;;;;5013293;28;20619;-62
2021/06/01 04:33:16;;;;;;;12.07;10.87;;;13.20;99.90;;;;;;5011846;28;20216;-62
2021/06/01 04:35:41;;;;;;;12.50;11.23;;;13.20;99.90;;;;;;5019622;28;20665;-62
2021/06/01 04:38:07;;;;;;;12.20;10.73;;;13.20;99.90;;;;;;5016907;28;20751;-63
2021/06/01 04:40:33;;;;;;;10.27;9.37;;;13.30;99.90;;;;;;5008606;28;20631;-62
2021/06/01 04:43:01;;;;;;;11.20;10.20;;;13.30;99.90;;;;;;5014938;28;20181;-63
2021/06/01 04:45:27;;;;;;;10.70;9.80;;;13.40;99.90;;;;;;5006606;28;20185;-62
2021/06/01 04:47:52;;;;;;;11.63;10.43;;;13.40;99.90;;;;;;5020865;28;20662;-64
2021/06/01 04:50:18;;;;;;;10.37;9.47;;;13.50;99.90;;;;;;5013469;28;20654;-63
2021/06/01 04:52:47;;;;;;;10.70;9.70;;;13.50;99.90;;;;;;5014038;28;20668;-63
2021/06/01 04:55:15;;;;;;;11.57;9.93;;;13.50;99.90;;;;;;5021723;28;20676;-63
2021/06/01 04:57:41;;;;;;;10.90;9.90;;;13.60;99.90;;;;;;5023748;28;20665;-63
2021/06/01 05:00:08;;;;;;;11.50;10.50;;;13.70;99.90;;;;;;5019005;28;21238;-63
2021/06/01 05:02:34;;;;;;;11.37;10.30;;;13.70;99.90;;;;;;5005609;28;21048;-63
2021/06/01 05:05:00;;;;;;;11.37;10.27;;;13.80;99.90;;;;;;5007429;28;20642;-63
2021/06/01 05:07:25;;;;;;;11.70;10.60;;;13.80;99.90;;;;;;5024686;28;20692;-63
2021/06/01 05:09:51;;;;;;;12.30;11.20;;;13.90;99.90;;;;;;5002623;28;20205;-63
2021/06/01 05:12:17;;;;;;;11.47;10.47;;;13.90;99.90;;;;;;4999935;28;20341;-62
2021/06/01 05:14:45;;;;;;;12.43;11.23;;;14.00;99.90;;;;;;5018400;28;21213;-62
2021/06/01 05:17:10;;;;;;;11.77;10.60;;;14.00;99.90;;;;;;5010786;28;20590;-63
2021/06/01 05:19:36;;;;;;;11.20;10.07;;;14.20;99.90;;;;;;5017624;28;20647;-62
2021/06/01 05:22:02;;;;;;;11.57;10.37;;;14.20;99.90;;;;;;5009676;28;20673;-62
2021/06/01 05:24:27;;;;;;;12.13;10.93;;;14.20;99.90;;;;;;5010503;28;20419;-64
2021/06/01 05:26:53;;;;;;;11.70;10.60;;;14.30;99.90;;;;;;5017615;28;20192;-63
2021/06/01 05:29:18;;;;;;;12.10;11.10;;;14.30;99.90;;;;;;5014380;28;20691;-63
2021/06/01 05:34:11;;;;;;;12.67;11.37;;;14.40;99.90;;;;;;5002340;28;22102;-63
2021/06/01 05:36:39;;;;;;;12.73;11.43;;;14.50;99.90;;;;;;4996580;28;20556;-63
2021/06/01 05:39:10;;;;;;;10.67;9.63;;;14.60;99.90;;;;;;5002974;28;20744;-63
2021/06/01 05:41:36;;;;;;;10.87;9.93;;;14.70;99.90;;;;;;5009619;28;20684;-63
2021/06/01 05:44:01;;;;;;;12.23;11.03;;;14.70;99.90;;;;;;5005042;28;20666;-64
2021/06/01 05:46:28;;;;;;;12.17;10.90;;;14.80;99.90;;;;;;5012085;28;21097;-64
2021/06/01 05:48:57;;;;;;;11.83;10.67;;;14.80;99.90;;;;;;5016388;28;20752;-62
2021/06/01 05:51:33;;;;;;;11.83;10.73;;;14.90;99.90;;;;;;5014601;28;20616;-62
2021/06/01 05:53:59;;;;;;;11.50;10.40;;;15.00;99.90;;;;;;5028737;28;20651;-63
2021/06/01 05:56:27;;;;;;;11.67;10.50;;;15.10;99.90;;;;;;5020141;28;20682;-62
2021/06/01 05:58:52;;;;;;;11.93;10.83;;;15.10;99.90;;;;;;5021958;28;20201;-63
2021/06/01 06:01:18;;;;;;;12.37;11.10;;;15.20;99.90;;;;;;5039419;28;20618;-64
2021/06/01 06:03:43;;;;;;;11.30;10.20;;;15.30;99.90;;;;;;5003786;28;20221;-63
2021/06/01 06:06:13;;;;;;;12.00;10.90;;;15.40;99.90;;;;;;5001904;28;20189;-65
2021/06/01 06:08:41;;;;;;;10.63;9.53;;;15.50;99.90;;;;;;5015228;28;20240;-63
2021/06/01 06:11:07;;;;;;;14.50;10.10;;;15.70;99.90;;;;;;5019420;28;20634;-64
2021/06/01 06:13:35;;;;;;;13.60;9.73;;;15.80;99.90;;;;;;5024306;28;20627;-62
2021/06/01 06:16:02;;;;;;;10.50;9.40;;;15.90;99.90;;;;;;5026742;28;20196;-65
2021/06/01 06:18:57;;;;;;;10.67;9.70;;;15.90;99.90;;;;;;5037288;28;21232;-64
2021/06/01 06:21:23;;;;;;;11.73;10.47;;;16.10;99.90;;;;;;5019904;28;20647;-64
2021/06/01 06:23:49;;;;;;;10.20;9.20;;;16.30;99.90;;;;;;5024966;28;20694;-63
2021/06/01 06:26:17;;;;;;;9.37;8.47;;;16.30;99.90;;;;;;5028128;28;20219;-63
2021/06/01 06:28:43;;;;;;;10.93;10.03;;;16.40;99.90;;;;;;5026176;28;20302;-63
2021/06/01 06:31:09;;;;;;;9.60;8.60;;;16.40;99.90;;;;;;5028688;28;20607;-64
2021/06/01 06:33:34;;;;;;;10.80;8.73;;;16.60;99.90;;;;;;5013509;28;20213;-64
2021/06/01 06:36:00;;;;;;;9.47;8.57;;;16.60;99.90;;;;;;5027734;28;20197;-64
2021/06/01 06:38:28;;;;;;;10.53;9.00;;;16.80;99.90;;;;;;5016585;28;20230;-63
2021/06/01 06:41:13;;;;;;;8.87;8.07;;;16.90;99.90;;;;;;5024246;28;20185;-64
2021/06/01 06:43:49;;;;;;;10.00;7.63;;;17.00;99.90;;;;;;5015961;28;20636;-64
2021/06/01 06:48:52;;;;;;;8.43;7.53;;;17.20;99.90;;;;;;5017646;28;21089;-64
2021/06/01 06:51:18;;;;;;;7.53;6.80;;;17.30;99.90;;;;;;5013939;28;20722;-64
2021/06/01 06:53:58;;;;;;;6.93;6.23;;;17.40;99.90;;;;;;5019871;28;20730;-64
2021/06/01 06:56:26;;;;;;;6.20;5.60;;;17.50;99.90;;;;;;5018031;28;20223;-64
2021/06/01 06:58:54;;;;;;;6.30;5.80;;;17.60;99.90;;;;;;5032640;28;20650;-64
2021/06/01 07:01:20;;;;;;;6.43;5.93;;;17.80;99.90;;;;;;5002901;28;20649;-64
2021/06/01 07:03:46;;;;;;;4.80;4.40;;;17.90;99.90;;;;;;5017027;28;20630;-65
2021/06/01 07:06:12;;;;;;;6.30;4.90;;;18.00;99.90;;;;;;5015951;28;20627;-64
2021/06/01 07:08:38;;;;;;;5.73;5.20;;;18.20;99.90;;;;;;5019267;28;20189;-65
2021/06/01 07:11:03;;;;;;;5.60;5.20;;;18.30;99.90;;;;;;5018752;28;20673;-64
2021/06/01 07:13:44;;;;;;;5.93;4.83;;;18.50;99.90;;;;;;5012593;28;20617;-65
2021/06/01 07:16:11;;;;;;;5.00;4.60;;;18.60;99.90;;;;;;5011512;28;20212;-64
2021/06/01 07:18:40;;;;;;;5.80;5.30;;;18.60;99.90;;;;;;5020754;28;20627;-65
2021/06/01 07:21:06;;;;;;;4.90;4.40;;;18.70;99.90;;;;;;5020953;28;20722;-65
2021/06/01 07:23:33;;;;;;;5.43;4.90;;;18.80;99.90;;;;;;5014504;28;20624;-66
2021/06/01 07:26:01;;;;;;;5.50;4.30;;;18.90;99.90;;;;;;5024093;28;20622;-66
2021/06/01 07:28:27;;;;;;;5.20;4.70;;;18.90;99.90;;;;;;5020637;28;21004;-65
2021/06/01 07:30:53;;;;;;;4.33;3.93;;;19.00;99.90;;;;;;5014068;28;20662;-65
2021/06/01 07:33:18;;;;;;;5.30;4.10;;;19.10;99.90;;;;;;5021351;28;20251;-65
2021/06/01 07:35:44;;;;;;;4.73;4.30;;;19.10;99.90;;;;;;5019361;28;20204;-65
2021/06/01 07:38:13;;;;;;;4.40;4.00;;;19.20;99.90;;;;;;5027798;28;20212;-67
2021/06/01 07:40:42;;;;;;;4.43;4.03;;;19.30;99.90;;;;;;5012064;28;20669;-66
2021/06/01 07:43:07;;;;;;;5.03;3.90;;;19.40;99.90;;;;;;5013191;28;21016;-67
2021/06/01 07:45:35;;;;;;;4.23;3.90;;;19.50;99.90;;;;;;5013218;28;20704;-65
2021/06/01 07:48:01;;;;;;;4.53;4.13;;;19.50;99.90;;;;;;5025684;28;20223;-66
2021/06/01 07:50:29;;;;;;;4.50;3.90;;;19.60;99.90;;;;;;5012064;28;20636;-66
2021/06/01 07:52:56;;;;;;;5.33;4.40;;;19.60;99.90;;;;;;5009784;28;20973;-65
2021/06/01 07:55:25;;;;;;;4.27;3.97;;;19.70;99.90;;;;;;5011961;28;20619;-65
2021/06/01 07:57:51;;;;;;;4.63;3.90;;;19.70;99.90;;;;;;5017441;28;20658;-65
2021/06/01 08:00:17;;;;;;;5.93;4.30;;;19.70;99.90;;;;;;5017387;28;20650;-65
2021/06/01 08:02:43;;;;;;;4.00;3.70;;;19.80;99.90;;;;;;5007299;28;20728;-65
2021/06/01 08:05:12;;;;;;;4.20;3.90;;;19.90;99.90;;;;;;5015333;28;21197;-65
2021/06/01 08:07:37;;;;;;;4.50;3.53;;;19.90;99.90;;;;;;5019709;28;20267;-66
2021/06/01 08:10:04;;;;;;;3.83;3.53;;;20.00;99.90;;;;;;5014967;28;20745;-65
2021/06/01 08:12:33;;;;;;;3.70;3.30;;;20.10;99.90;;;;;;5012781;28;20235;-66
2021/06/01 08:14:59;;;;;;;4.00;3.70;;;20.10;99.90;;;;;;5014854;28;21016;-64
2021/06/01 08:17:25;;;;;;;3.70;3.40;;;20.20;99.90;;;;;;5035485;28;20651;-65
2021/06/01 08:19:53;;;;;;;4.30;3.90;;;20.30;99.90;;;;;;5017793;28;20243;-67
2021/06/01 08:24:44;;;;;;;3.80;3.50;;;20.30;99.90;;;;;;5018226;28;20735;-64
2021/06/01 08:27:10;;;;;;;3.90;3.60;;;20.40;99.90;;;;;;5014559;28;20251;-64
2021/06/01 08:29:36;;;;;;;4.47;3.83;;;20.50;99.90;;;;;;5016747;28;20208;-65
2021/06/01 08:32:04;;;;;;;3.97;3.67;;;20.50;99.90;;;;;;5018981;28;20196;-65
2021/06/01 08:34:29;;;;;;;4.40;4.00;;;20.60;99.90;;;;;;5011191;28;20234;-66
2021/06/01 08:36:55;;;;;;;4.00;3.70;;;20.60;99.90;;;;;;5017519;28;22934;-67
2021/06/01 08:39:27;;;;;;;4.60;3.70;;;20.70;99.90;;;;;;5011911;28;20216;-67
2021/06/01 08:41:57;;;;;;;3.70;3.40;;;20.80;99.90;;;;;;5028508;28;20215;-65
2021/06/01 08:44:24;;;;;;;3.90;3.60;;;20.90;99.90;;;;;;5008053;28;20644;-66
2021/06/01 08:46:51;;;;;;;4.27;3.97;;;20.90;99.90;;;;;;5022823;28;20924;-67
2021/06/01 08:49:18;;;;;;;3.87;3.60;;;20.90;99.90;;;;;;5014352;28;21453;-65
2021/06/01 08:51:44;;;;;;;3.73;3.43;;;21.10;99.90;;;;;;5015842;28;21126;-66
2021/06/01 08:54:10;;;;;;;4.73;4.07;;;21.10;99.90;;;;;;5019125;28;20640;-65
2021/06/01 08:56:38;;;;;;;4.00;3.70;;;21.20;99.90;;;;;;5010246;28;21253;-65
2021/06/01 08:59:04;;;;;;;3.80;3.50;;;21.30;99.90;;;;;;5023263;28;20204;-66
2021/06/01 09:01:33;;;;;;;4.00;3.70;;;21.30;99.90;;;;;;5023474;28;20665;-64
2021/06/01 09:04:00;;;;;;;4.23;3.93;;;21.50;99.90;;;;;;5022639;28;20303;-64
2021/06/01 09:15:05;;;;;;;4.00;3.70;;;21.80;99.90;;;;;;5012064;28;20658;-64
2021/06/01 09:23:02;;;;;;;4.63;4.27;;;22.00;99.90;;;;;;5019984;28;21042;-65
2021/06/01 09:25:39;;;;;;;4.40;4.10;;;22.00;99.90;;;;;;5007747;28;21221;-65
2021/06/01 09:28:07;;;;;;;5.30;3.93;;;22.10;99.90;;;;;;5019137;28;20627;-65
2021/06/01 09:30:39;;;;;;;4.13;3.83;;;22.20;99.90;;;;;;5024339;28;20758;-65
2021/06/01 09:33:07;;;;;;;4.87;4.50;;;22.30;99.90;;;;;;5020869;28;20979;-65
2021/06/01 09:35:50;;;;;;;4.33;3.93;;;22.50;99.90;;;;;;5038756;28;21076;-65
2021/06/01 09:38:20;;;;;;;3.97;3.67;;;22.50;99.90;;;;;;5030462;28;20654;-66
2021/06/01 09:40:49;;;;;;;4.17;3.77;;;22.60;99.90;;;;;;5039546;28;20608;-66
2021/06/01 09:43:16;;;;;;;4.77;4.37;;;22.60;99.90;;;;;;5014535;28;21526;-67
2021/06/01 09:48:26;;;;;;;4.90;4.60;;;22.60;99.90;;;;;;5028523;23;20703;-66
2021/06/01 09:51:09;;;;;;;5.23;4.37;;;22.60;99.90;;;;;;5021315;28;20619;-66
2021/06/01 09:53:36;;;;;;;4.90;4.50;;;22.60;99.90;;;;;;5025921;28;20593;-65
2021/06/01 09:56:02;;;;;;;4.80;4.40;;;22.70;99.90;;;;;;5027888;28;20611;-66
2021/06/01 09:58:33;;;;;;;5.30;4.80;;;22.70;99.90;;;;;;5022275;28;20662;-66
2021/06/01 10:01:02;;;;;;;6.50;4.80;;;22.70;99.90;;;;;;5027185;28;20184;-66
2021/06/01 10:03:37;;;;;;;5.17;4.60;;;22.70;99.90;;;;;;5024546;28;21304;-66
2021/06/01 10:08:52;;;;;;;5.33;4.83;;;22.80;99.90;;;;;;4777766;22;20681;-68
2021/06/01 10:11:18;;;;;;;5.20;4.70;;;22.90;99.90;;;;;;5009983;28;20631;-68
2021/06/01 10:13:44;;;;;;;5.30;5.00;;;22.90;99.90;;;;;;5011343;28;20643;-68
2021/06/01 10:16:16;;;;;;;6.17;4.73;;;23.00;99.90;;;;;;5010529;28;20264;-68
2021/06/01 10:18:43;;;;;;;5.40;4.77;;;23.00;99.90;;;;;;5014412;28;20221;-68
2021/06/01 10:21:14;;;;;;;8.60;4.80;;;23.10;99.90;;;;;;5005010;28;20627;-68
2021/06/01 10:23:47;;;;;;;4.47;4.17;;;23.00;99.90;;;;;;5010282;28;20667;-65
2021/06/01 10:26:13;;;;;;;4.90;4.60;;;23.10;99.90;;;;;;5009437;28;20619;-65
2021/06/01 10:28:46;;;;;;;5.13;4.70;;;23.10;99.90;;;;;;5011550;28;20612;-66
2021/06/01 10:31:15;;;;;;;5.63;5.13;;;23.10;99.90;;;;;;5015018;28;20655;-65
2021/06/01 10:33:43;;;;;;;5.87;5.10;;;23.10;99.90;;;;;;5014590;28;20629;-66
2021/06/01 10:50:04;;;;;;;5.40;5.00;;;23.50;99.90;;;;;;5008971;28;20561;-68
2021/06/01 10:52:30;;;;;;;5.70;5.23;;;23.60;99.90;;;;;;5010643;28;20647;-68
2021/06/01 10:54:59;;;;;;;5.87;5.47;;;23.80;99.90;;;;;;5011661;28;20639;-69
2021/06/01 10:57:59;;;;;;;5.53;5.13;;;23.90;99.90;;;;;;5012753;28;20232;-69
2021/06/01 11:03:08;;;;;;;5.70;5.20;;;24.10;99.90;;;;;;5006088;28;21010;-69
2021/06/01 11:05:56;;;;;;;5.27;4.83;;;24.20;99.90;;;;;;5006697;28;20716;-69
2021/06/01 11:08:50;;;;;;;5.87;5.37;;;24.40;99.90;;;;;;5008844;28;20685;-69
2021/06/01 11:11:31;;;;;;;6.47;5.40;;;24.40;99.90;;;;;;5001517;28;20624;-70
2021/06/01 11:14:02;;;;;;;5.97;5.57;;;24.60;99.90;;;;;;5014577;28;20751;-69
2021/06/01 11:17:00;;;;;;;6.40;5.80;;;24.80;99.90;;;;;;5004998;28;21226;-69
2021/06/01 11:20:00;;;;;;;6.03;5.53;;;24.80;99.90;;;;;;5009312;28;20716;-69
2021/06/01 11:22:39;;;;;;;5.93;5.43;;;24.80;99.90;;;;;;5007873;28;20601;-69
2021/06/01 11:33:37;;;;;;;5.20;4.70;;;25.10;99.90;;;;;;4989569;28;24492;-69
2021/06/01 11:36:05;;;;;;;5.50;5.00;;;25.20;99.90;;;;;;4999264;28;20619;-69
2021/06/01 11:43:49;;;;;;;6.13;5.60;;;25.40;99.90;;;;;;5004722;28;21012;-69
2021/06/01 11:51:44;;;;;;;6.27;5.80;;;25.60;99.90;;;;;;4991388;28;20623;-69
2021/06/01 11:54:13;;;;;;;5.80;5.40;;;25.60;99.90;;;;;;4995004;28;20640;-71
2021/06/01 12:02:43;;;;;;;5.60;5.10;;;25.60;99.90;;;;;;5003817;28;20616;-69
2021/06/01 12:05:44;;;;;;;6.30;5.80;;;25.50;99.90;;;;;;5001332;28;20647;-69
2021/06/01 12:19:05;;;;;;;5.60;5.10;;;26.10;99.90;;;;;;4997962;28;20638;-70
2021/06/01 12:21:38;;;;;;;8.20;5.70;;;26.20;99.90;;;;;;5008337;28;20655;-70
2021/06/01 12:24:14;;;;;;;5.97;5.57;;;26.30;99.90;;;;;;5013549;28;21178;-69
2021/06/01 12:32:11;;;;;;;5.00;4.60;;;26.60;99.90;;;;;;5013870;28;20654;-69
2021/06/01 13:07:06;;;;;;;4.10;3.80;;;27.80;99.90;;;;;;5007699;28;20666;-69
2021/06/01 13:12:25;;;;;;;4.23;3.83;;;28.00;98.30;;;;;;4985756;28;20927;-69
2021/06/01 13:31:42;;;;;;;5.17;4.13;;;28.10;97.10;;;;;;5001755;28;20622;-69
2021/06/01 13:47:55;;;;;;;4.60;4.30;;;27.80;96.50;;;;;;4997562;28;20674;-67
2021/06/01 13:50:29;;;;;;;5.03;4.50;;;27.60;95.90;;;;;;5011310;28;21336;-67
2021/06/01 13:56:01;;;;;;;4.77;4.47;;;27.40;96.90;;;;;;4941314;28;20618;-68
2021/06/01 14:09:53;;;;;;;5.10;4.70;;;27.40;98.20;;;;;;5007106;28;20673;-68
2021/06/01 14:20:58;;;;;;;4.90;4.60;;;27.30;98.30;;;;;;5010507;28;21182;-67
2021/06/01 14:57:00;;;;;;;4.23;3.93;;;26.30;96.00;;;;;;5010998;28;22020;-68
2021/06/01 15:28:50;;;;;;;2.90;2.70;;;25.40;91.70;;;;;;5000619;28;20692;-69
2021/06/01 16:14:55;;;;;;;3.03;2.70;;;25.10;89.90;;;;;;5010626;28;21750;-69
2021/06/01 16:23:05;;;;;;;3.40;2.60;;;24.80;89.20;;;;;;5008776;28;20663;-70
2021/06/01 16:44:30;;;;;;;3.70;1.50;;;24.00;78.50;;;;;;5009825;28;20804;-68
2021/06/01 17:03:32;;;;;;;2.20;1.40;;;23.20;71.30;;;;;;5010340;28;20697;-68
2021/06/01 17:06:09;;;;;;;1.37;1.20;;;23.10;69.50;;;;;;5011392;28;20597;-68
2021/06/01 17:11:19;;;;;;;1.50;1.17;;;22.90;72.20;;;;;;5008802;28;20619;-68
2021/06/01 17:13:56;;;;;;;1.60;1.50;;;22.90;72.20;;;;;;5008891;28;20655;-68
2021/06/01 17:34:55;;;;;;;1.50;1.40;;;22.40;73.80;;;;;;5001592;28;21018;-69
2021/06/01 17:37:27;;;;;;;1.43;1.33;;;22.30;74.10;;;;;;5014225;28;20817;-68
2021/06/01 17:39:53;;;;;;;1.43;1.33;;;22.30;74.80;;;;;;5012958;28;20660;-66
2021/06/01 17:42:20;;;;;;;1.40;1.30;;;22.20;75.00;;;;;;5012609;28;20607;-74
2021/06/01 17:44:48;;;;;;;1.67;1.40;;;22.20;76.80;;;;;;5006256;28;20644;-75
2021/06/01 17:47:22;;;;;;;1.57;1.40;;;22.20;78.00;;;;;;5012501;28;20609;-71
2021/06/01 17:49:51;;;;;;;1.37;1.27;;;22.10;78.40;;;;;;5010582;28;22129;-71
2021/06/01 17:52:32;;;;;;;1.60;1.50;;;22.10;79.00;;;;;;5010106;28;20702;-71
2021/06/01 17:55:00;;;;;;;1.40;1.30;;;22.00;78.20;;;;;;5013353;28;21058;-72
2021/06/01 17:57:27;;;;;;;1.30;1.20;;;21.90;75.90;;;;;;5015472;28;20690;-73
2021/06/01 17:59:55;;;;;;;1.23;1.20;;;21.80;76.90;;;;;;5013536;28;20643;-72
2021/06/01 18:02:21;;;;;;;1.33;1.23;;;21.70;78.90;;;;;;5013610;28;20954;-72
2021/06/01 18:04:49;;;;;;;1.47;1.37;;;21.70;79.20;;;;;;5028613;28;20639;-72
2021/06/01 18:07:31;;;;;;;1.60;1.50;;;21.60;80.20;;;;;;5017323;28;20689;-69
2021/06/01 18:13:06;;;;;;;1.40;1.30;;;21.50;82.70;;;;;;5016785;28;20673;-72
2021/06/01 18:43:14;;;;;;;1.83;1.73;;;20.60;87.90;;;;;;5018021;28;20751;-70
2021/06/01 19:21:53;;;;;;;2.27;2.17;;;19.80;92.60;;;;;;5015598;28;20599;-67
2021/06/01 19:29:58;;;;;;;2.63;2.37;;;19.60;92.60;;;;;;5020962;28;20626;-68
2021/06/01 19:51:59;;;;;;;3.00;2.30;;;19.30;97.00;;;;;;5006867;28;20621;-69
2021/06/01 19:54:30;;;;;;;3.27;3.00;;;19.20;97.20;;;;;;5011067;28;20652;-69
2021/06/01 19:56:56;;;;;;;3.10;2.80;;;19.20;97.80;;;;;;5008572;28;21298;-69
2021/06/01 19:59:23;;;;;;;4.40;3.20;;;19.20;98.60;;;;;;5014332;28;21030;-69
2021/06/01 20:01:49;;;;;;;4.20;2.67;;;19.10;99.20;;;;;;5011382;28;20639;-69
2021/06/01 20:04:15;;;;;;;2.77;2.57;;;19.00;99.50;;;;;;5010928;28;20770;-69
2021/06/01 20:06:43;;;;;;;3.10;2.90;;;19.00;99.90;;;;;;5014079;28;20280;-69
2021/06/01 20:09:08;;;;;;;3.30;3.00;;;19.00;99.90;;;;;;5015643;28;20220;-69
2021/06/01 20:11:34;;;;;;;3.03;2.83;;;18.90;99.90;;;;;;5020609;28;20620;-71
2021/06/01 20:14:01;;;;;;;3.30;3.10;;;18.80;99.90;;;;;;5007504;28;20255;-69
2021/06/01 20:16:29;;;;;;;3.43;3.00;;;18.80;99.90;;;;;;5008273;28;20619;-69